• Join FlightAware (Why Join?)
  • Login
  • US Flag 
05:23AM EDT


 

Airport Tracker/Info


-or-


 

Live Flight TrackerFlight Track Log ✈ FLG4224 ✈ 30-Jul-2013 ✈ KBTV - KDTW

Flight Track Log - Related Links

Times and Time Zones

All times are in EDT time to prevent confusion due to time zone crossing. See the FLG4224 flight status page for this flight to view local times or setup timezone preferences in your user account.

Time Position Orientation Groundspeed Altitude Reporting Facility
EDT Latitude Longitude Course Direction KTS MPH feet Rate Location/Type
06:18AM 44.4003 -73.2247 256° West 218 251 5,000  Level Boston Center
06:19AM 44.3892 -73.3175 261° West 239 275 7,600 2,880 Climbing Boston Center
06:20AM 44.3555 -73.7787 259° West  Level FlightAware Approximate
06:20AM 44.3739 -73.4189 258° West 262 302 10,700  Level Boston Center
06:21AM 44.3373 -73.9058 259° West  Level FlightAware Approximate
06:21AM 44.3583 -73.5261 259° West 279 321 12,200  Level Boston Center
06:22AM 44.3153 -74.0317 256° West  Level FlightAware Approximate
06:22AM 44.3403 -73.6506 259° West 307 353 13,800  Level Boston Center
06:23AM 44.2921 -74.1572 256° West  Level FlightAware Approximate
06:23AM 44.3203 -73.7806 258° West 326 375 15,400  Level Boston Center
06:24AM 44.3019 -73.9108 259° West 341 392 17,000 1,500 Climbing Boston Center
06:25AM 44.2814 -74.0408 258° West 347 399 18,400 1,260 Climbing Boston Center
06:26AM 44.2608 -74.1706 258° West 352 405 19,600 1,140 Climbing Boston Center
06:27AM 44.2400 -74.3033 258° West 352 405 20,800 1,140 Climbing Boston Center
06:28AM 44.2189 -74.4389 258° West 357 411 21,900 900 Climbing Boston Center
06:29AM 44.1978 -74.5714 258° West 351 404 22,700 780 Climbing Boston Center
06:30AM 44.1764 -74.7067 258° West 357 411 23,500 780 Climbing Boston Center
06:31AM 44.1550 -74.8447 258° West 362 417 24,300 720 Climbing Boston Center
06:32AM 44.1331 -74.9856 258° West 367 422 25,000 540 Climbing Boston Center
06:33AM 44.1111 -75.1264 258° West 372 428 25,400 480 Climbing Boston Center
06:34AM 44.0892 -75.2672 258° West 372 428 26,000 540 Climbing Boston Center
06:35AM 44.0644 -75.4106 257° West 372 428 26,500 420 Climbing Boston Center
06:36AM 44.0422 -75.5422 257° West 378 435 26,900 480 Climbing Boston Center
06:37AM 44.0175 -75.6883 257° West 383 441 27,500 540 Climbing Boston Center
06:38AM 43.9944 -75.8314 257° West 383 441 28,000 240 Climbing Boston Center
06:39AM 43.9714 -75.9772 258° West 388 447 28,000  Level Boston Center
06:40AM 43.9542 -76.1292 261° West 400 460 28,000  Level Boston Center
06:41AM 43.9492 -76.2817 267° West 400 460 28,000  Level Boston Center
06:42AM 43.9458 -76.4400 268° West 405 466 28,000  Level Boston Center
06:44AM 43.9333 -76.7000 266° West 400 460 28,000  Level Toronto Center
06:45AM 43.9167 -76.8500 261° West 410 472 28,000  Level Toronto Center
06:46AM 43.9000 -77.0000 261° West 410 472 28,000  Level Toronto Center
06:47AM 43.8833 -77.1500 261° West 410 472 28,000  Level Toronto Center
06:48AM 43.8667 -77.3167 262° West 400 460 28,000  Level Toronto Center
06:49AM 43.8667 -77.4667 270° West 400 460 28,000  Level Toronto Center
06:50AM 43.8500 -77.6167 261° West 400 460 28,000  Level Toronto Center
06:51AM 43.8333 -77.7833 262° West 400 460 28,000  Level Toronto Center
06:52AM 43.8167 -77.9167 260° West 400 460 28,000  Level Toronto Center
06:53AM 43.8000 -78.0833 262° West 410 472 28,000  Level Toronto Center
06:54AM 43.7833 -78.2500 262° West 410 472 28,000  Level Toronto Center
06:55AM 43.7667 -78.4167 262° West 410 472 28,000  Level Toronto Center
06:56AM 43.7500 -78.5500 260° West 410 472 28,000  Level Toronto Center
06:57AM 43.7333 -78.7167 262° West 410 472 28,000  Level Toronto Center
06:58AM 43.7167 -78.8667 261° West 410 472 28,000  Level Toronto Center
06:59AM 43.7000 -79.0333 262° West 410 472 28,000  Level Toronto Center
07:00AM 43.6833 -79.1667 260° West 410 472 28,000  Level Toronto Center
07:01AM 43.6667 -79.3333 262° West 410 472 28,000  Level Toronto Center
07:02AM 43.6500 -79.5000 262° West 410 472 28,000  Level Toronto Center
07:03AM 43.6333 -79.6500 261° West 420 483 28,000  Level Toronto Center
07:04AM 43.6167 -79.8167 262° West 420 483 28,000  Level Toronto Center
07:05AM 43.6000 -79.9500 260° West 410 472 28,000  Level Toronto Center
07:06AM 43.5833 -80.1333 263° West 410 472 28,000  Level Toronto Center
07:07AM 43.5667 -80.2833 261° West 410 472 28,000  Level Toronto Center
07:08AM 43.5500 -80.4333 261° West 410 472 28,000  Level Toronto Center
07:09AM 43.5333 -80.6000 262° West 410 472 28,000  Level Toronto Center
07:10AM 43.5167 -80.7667 262° West 420 483 28,000  Level Toronto Center
07:11AM 43.4833 -80.9000 251° West 410 472 28,000  Level Toronto Center
07:12AM 43.4500 -81.0500 253° West 420 483 28,000  Level Toronto Center
07:13AM 43.4333 -81.2167 262° West 420 483 28,000  Level Toronto Center
07:14AM 43.4167 -81.3833 262° West 410 472 28,000  Level Toronto Center
07:15AM 43.4000 -81.5333 261° West 420 483 28,000  Level Toronto Center
07:16AM 43.3833 -81.7000 262° West 420 483 28,000  Level Toronto Center
07:17AM 43.3667 -81.8500 261° West 420 483 28,000 -180 Level Toronto Center
07:18AM 43.3333 -82.0167 255° West 420 483 27,700 -780 Descending Toronto Center
07:19AM 43.3167 -82.1833 262° West 420 483 26,500 -1,200 Descending Toronto Center
07:20AM 43.3000 -82.3167 260° West 420 483 25,400 -1,200 Descending Toronto Center
07:21AM 43.2833 -82.4667 261° West 420 483 24,100 -1,200 Descending Toronto Center
07:22AM 43.2667 -82.6333 262° West 420 483 23,000 -1,140 Descending Toronto Center
07:22AM 43.2442 -82.7519 255° West 427 491 22,100 -1,200 Descending Cleveland Center
07:23AM 43.2039 -82.9017 250° West 427 491 20,900 -1,200 Descending Cleveland Center
07:24AM 43.1633 -83.0481 249° West 422 486 19,700 -1,200 Descending Cleveland Center
07:25AM 43.1225 -83.1917 249° West 417 480 18,500 -1,140 Descending Cleveland Center
07:26AM 43.0839 -83.3378 250° West 349 402 17,500 -1,200 Descending Cleveland Center
07:27AM 43.0497 -83.4556 248° West 333 383 16,200 -1,500 Descending Cleveland Center
07:28AM 43.0153 -83.5817 250° West 341 392 14,500 -1,620 Descending Cleveland Center
07:29AM 42.9833 -83.6881 248° West 347 399 13,100 -1,320 Descending Cleveland Center
07:30AM 42.9003 -83.7436 206° Southwest 323 372 12,000 -660 Descending Cleveland Center
07:31AM 42.8114 -83.7219 170° South 307 353 11,800 -840 Descending Cleveland Center
07:32AM 42.7356 -83.6758 156° South 307 353 10,400 -1,320 Descending Cleveland Center
07:33AM 42.6636 -83.6356 158° South 273 314 9,100 -960 Descending Cleveland Center
07:34AM 42.5964 -83.5703 144° Southeast 284 327 8,500 -900 Descending Cleveland Center
07:35AM 42.5422 -83.4944 134° Southeast 284 327 7,400 -1,260 Descending Cleveland Center
07:36AM 42.4947 -83.3936 123° Southeast 279 321 6,000 -1,080 Descending Cleveland Center
07:37AM 42.4417 -83.3378 142° Southeast 267 307 5,400 -960 Descending Cleveland Center
07:38AM 42.3739 -83.3039 160° South 207 238 4,100 -1,380 Descending Cleveland Center
07:39AM 42.3194 -83.3100 185° South 183 211 2,500 -1,140 Descending Cleveland Center
07:40AM 42.2772 -83.3306 200° South 139 160 1,900 -720 Descending Cleveland Center
07:41AM 42.2456 -83.3544 209° Southwest 137 158 1,200 -780 Descending Cleveland Center